Time;durP1;ratioP1;P1;durP2;ratioP2;P2;SDS_P1;SDS_P2;PMS_P1;PMS_P2;Temp;Humidity;BMP_temperature;BMP_pressure;BME280_temperature;BME280_humidity;BME280_pressure;Samples;Min_cycle;Max_cycle;Signal;HPM_P1;HPM_P2
2023/01/09 00:01:48;;;;;;;67.53;32.40;;;;;;;41.61;36.92;101116.31;4832379;29;20436;-78
2023/01/09 00:04:15;;;;;;;68.43;29.33;;;;;;;41.57;36.92;101111.88;4828569;29;20946;-78
2023/01/09 00:06:42;;;;;;;74.27;31.30;;;;;;;41.63;37.12;101116.00;4831297;29;20432;-77
2023/01/09 00:09:09;;;;;;;73.30;32.03;;;;;;;41.44;37.26;101107.44;4822594;29;20444;-78
2023/01/09 00:11:36;;;;;;;62.97;30.30;;;;;;;41.37;37.46;101110.63;4833531;29;20432;-77
2023/01/09 00:14:03;;;;;;;78.03;33.67;;;;;;;41.49;37.41;101107.22;4825228;29;20969;-78
2023/01/09 00:16:29;;;;;;;62.87;30.87;;;;;;;41.35;37.65;101110.16;4824100;29;20479;-76
2023/01/09 00:18:55;;;;;;;63.67;31.03;;;;;;;41.45;37.10;101107.09;4838685;29;20420;-75
2023/01/09 00:21:21;;;;;;;95.57;38.40;;;;;;;41.49;37.02;101102.56;4840621;29;20424;-75
2023/01/09 00:23:47;;;;;;;108.37;34.87;;;;;;;41.59;36.85;101098.72;4827335;29;20542;-74
2023/01/09 00:26:16;;;;;;;72.43;34.17;;;;;;;41.57;36.99;101099.03;4840952;29;20566;-76
2023/01/09 00:28:43;;;;;;;79.43;33.77;;;;;;;41.47;37.14;101087.69;4822483;29;20449;-75
2023/01/09 00:31:10;;;;;;;83.17;31.03;;;;;;;41.38;37.12;101090.47;4824035;29;20418;-74
2023/01/09 00:33:41;;;;;;;68.37;31.37;;;;;;;41.47;37.24;101088.50;4829177;29;20483;-75
2023/01/09 00:36:08;;;;;;;74.20;29.97;;;;;;;41.52;37.14;101092.97;4838545;29;20460;-76
2023/01/09 00:38:35;;;;;;;77.17;29.53;;;;;;;41.47;37.43;101079.53;4829308;29;20480;-76
2023/01/09 00:41:03;;;;;;;63.23;32.63;;;;;;;41.59;37.03;101085.09;4828278;29;20456;-75
2023/01/09 00:43:36;;;;;;;60.83;32.13;;;;;;;41.51;37.14;101084.00;4838713;29;20526;-76
2023/01/09 00:46:04;;;;;;;78.33;31.70;;;;;;;41.53;36.79;101080.94;4825183;29;20449;-75
2023/01/09 00:48:32;;;;;;;74.37;31.13;;;;;;;41.39;37.20;101078.44;4810814;29;20426;-75
2023/01/09 00:50:59;;;;;;;79.63;32.60;;;;;;;41.36;37.24;101081.00;4835358;29;20444;-75
2023/01/09 00:53:28;;;;;;;68.90;31.27;;;;;;;41.45;37.37;101082.59;4829439;29;20439;-75
2023/01/09 00:55:58;;;;;;;62.93;31.80;;;;;;;41.44;37.33;101074.75;4839616;29;20472;-82
2023/01/09 00:58:24;;;;;;;64.67;32.50;;;;;;;41.57;37.14;101079.19;4825679;29;20432;-81
2023/01/09 01:00:50;;;;;;;76.63;31.07;;;;;;;41.74;37.10;101072.84;4824312;29;20951;-82
2023/01/09 01:03:16;;;;;;;88.87;35.30;;;;;;;41.39;37.44;101073.00;4831386;29;20429;-82
2023/01/09 01:08:26;;;;;;;80.27;33.97;;;;;;;41.50;37.05;101071.53;4823577;29;20241;-82
2023/01/09 01:10:52;;;;;;;54.80;28.17;;;;;;;41.51;37.13;101069.59;4822190;29;20421;-82
2023/01/09 01:13:18;;;;;;;62.30;29.07;;;;;;;41.43;37.50;101056.78;4822651;29;21010;-83
2023/01/09 01:15:46;;;;;;;56.70;31.27;;;;;;;41.42;37.40;101061.44;4822114;29;20516;-82
2023/01/09 01:18:13;;;;;;;61.33;30.10;;;;;;;41.43;36.83;101045.91;4822580;29;20426;-81
2023/01/09 01:20:41;;;;;;;70.73;30.80;;;;;;;41.51;37.27;101043.16;4821359;29;20486;-82
2023/01/09 01:23:08;;;;;;;83.57;34.67;;;;;;;41.24;37.30;101038.88;4821787;29;20793;-82
2023/01/09 01:25:42;;;;;;;84.27;33.17;;;;;;;41.32;37.20;101040.00;4822130;29;20490;-83
2023/01/09 01:28:09;;;;;;;86.00;32.70;;;;;;;41.47;37.01;101033.25;4821478;29;20822;-82
2023/01/09 01:30:39;;;;;;;81.13;31.27;;;;;;;41.44;37.19;101033.91;4822102;29;20878;-82
2023/01/09 01:33:05;;;;;;;87.27;32.90;;;;;;;41.47;37.04;101039.47;4821752;29;20489;-82
2023/01/09 01:35:31;;;;;;;67.03;29.67;;;;;;;41.50;37.20;101030.69;4822030;29;20507;-82
2023/01/09 01:37:57;;;;;;;63.10;32.70;;;;;;;41.36;37.18;101026.56;4821116;29;20477;-81
2023/01/09 01:40:23;;;;;;;63.73;31.73;;;;;;;41.41;37.35;101029.09;4821987;29;20437;-81
2023/01/09 01:42:52;;;;;;;68.63;26.97;;;;;;;41.39;37.55;101039.53;4823326;29;20184;-83
2023/01/09 01:45:19;;;;;;;79.97;30.97;;;;;;;41.47;37.48;101039.47;4829998;29;20572;-80
2023/01/09 01:48:03;;;;;;;63.57;32.70;;;;;;;41.38;37.22;101029.78;4822524;29;20426;-78
2023/01/09 01:50:49;;;;;;;48.20;27.67;;;;;;;41.45;37.31;101035.50;4812792;29;20459;-79
2023/01/09 01:53:24;;;;;;;71.03;33.33;;;;;;;41.38;37.43;101025.13;4821603;29;20431;-79
2023/01/09 01:56:02;;;;;;;86.37;35.97;;;;;;;41.50;37.33;101029.88;4822100;29;20461;-79
2023/01/09 01:58:28;;;;;;;52.63;28.63;;;;;;;41.37;37.28;101033.59;4821832;29;20486;-79
2023/01/09 02:00:54;;;;;;;61.53;27.30;;;;;;;41.22;37.80;101037.63;4822050;29;20497;-79
2023/01/09 02:03:25;;;;;;;74.93;31.10;;;;;;;40.75;37.90;101037.53;4821651;29;20802;-78
2023/01/09 02:05:51;;;;;;;63.93;33.00;;;;;;;40.89;38.39;101038.16;4823555;29;20441;-79
2023/01/09 02:08:17;;;;;;;71.13;34.77;;;;;;;40.90;37.95;101034.34;4821758;29;20445;-75
2023/01/09 02:10:44;;;;;;;70.27;28.90;;;;;;;40.76;38.49;101033.69;4821358;29;20437;-77
2023/01/09 02:13:12;;;;;;;88.83;32.47;;;;;;;40.55;38.83;101030.81;4821357;29;20438;-78
2023/01/09 02:16:00;;;;;;;77.57;30.53;;;;;;;40.62;39.03;101035.78;4821006;29;20440;-78
2023/01/09 02:18:43;;;;;;;77.70;30.33;;;;;;;40.55;38.75;101037.06;4821001;29;20819;-78
2023/01/09 02:21:41;;;;;;;74.87;33.90;;;;;;;40.75;38.73;101034.81;4821571;29;20425;-77
2023/01/09 02:24:15;;;;;;;76.50;32.63;;;;;;;40.59;39.27;101031.78;4780537;29;20804;-74
2023/01/09 02:26:56;;;;;;;77.80;36.53;;;;;;;40.59;38.78;101044.59;4821194;29;20441;-77
2023/01/09 02:29:40;;;;;;;67.70;39.87;;;;;;;40.69;38.60;101036.09;4821310;29;20429;-78
2023/01/09 02:32:30;;;;;;;85.90;41.83;;;;;;;40.84;38.33;101045.69;4812052;29;21039;-78
2023/01/09 02:35:15;;;;;;;85.03;43.50;;;;;;;40.73;38.71;101050.66;4824289;29;20811;-75
2023/01/09 02:37:59;;;;;;;79.43;38.73;;;;;;;40.59;38.43;101039.94;4824097;29;20477;-78
2023/01/09 02:40:37;;;;;;;90.37;40.07;;;;;;;40.53;38.66;101038.50;4824723;29;20429;-77
2023/01/09 02:43:06;;;;;;;83.83;42.77;;;;;;;40.67;38.56;101033.69;4827901;29;20466;-77
2023/01/09 02:45:31;;;;;;;74.07;43.73;;;;;;;40.54;38.69;101032.75;4815606;29;20469;-71
2023/01/09 02:47:57;;;;;;;105.57;45.67;;;;;;;40.34;39.16;101043.44;4813728;29;20883;-74
2023/01/09 02:50:34;;;;;;;93.40;49.00;;;;;;;40.10;39.47;101044.69;4816136;29;20421;-78
2023/01/09 02:53:12;;;;;;;83.17;45.00;;;;;;;40.17;39.67;101042.28;4829605;29;20528;-78
2023/01/09 02:56:12;;;;;;;94.23;47.43;;;;;;;40.09;38.95;101043.09;4816651;29;20864;-75
2023/01/09 02:58:41;;;;;;;83.50;46.07;;;;;;;40.18;39.50;101041.16;4817001;29;20433;-78
2023/01/09 03:01:19;;;;;;;82.27;41.23;;;;;;;40.18;39.10;101045.81;4826938;29;20448;-78
2023/01/09 03:03:48;;;;;;;95.73;44.37;;;;;;;40.15;39.10;101044.53;4813094;29;20957;-77
2023/01/09 03:06:23;;;;;;;76.97;42.90;;;;;;;40.14;38.95;101045.63;4835766;29;20457;-77
2023/01/09 03:08:54;;;;;;;76.83;40.60;;;;;;;39.90;39.33;101028.94;4815206;29;21047;-78
2023/01/09 03:11:21;;;;;;;72.17;39.00;;;;;;;40.05;39.60;101038.59;4825181;29;20425;-78
2023/01/09 03:13:54;;;;;;;101.30;42.77;;;;;;;39.80;39.56;101037.38;4841979;29;20431;-78
2023/01/09 03:16:30;;;;;;;71.10;40.50;;;;;;;40.03;39.40;101033.47;4836204;29;20495;-78
2023/01/09 03:18:58;;;;;;;97.87;39.37;;;;;;;39.99;39.00;101037.91;4820671;29;20422;-78
2023/01/09 03:21:25;;;;;;;87.60;42.77;;;;;;;39.87;39.23;101033.09;4817450;29;20818;-78
2023/01/09 03:23:53;;;;;;;78.73;47.10;;;;;;;40.05;38.97;101033.16;4823425;29;20471;-76
2023/01/09 03:26:19;;;;;;;71.27;42.60;;;;;;;39.69;39.48;101032.22;4823747;29;20425;-78
2023/01/09 03:28:45;;;;;;;72.47;41.87;;;;;;;39.69;39.76;101034.16;4825098;29;20430;-74
2023/01/09 03:31:12;;;;;;;73.20;47.33;;;;;;;39.60;40.21;101034.13;4823032;29;20450;-74
2023/01/09 03:33:37;;;;;;;81.77;41.37;;;;;;;39.84;39.39;101036.44;4823668;29;20425;-78
2023/01/09 03:36:04;;;;;;;87.77;41.97;;;;;;;39.57;39.91;101033.91;4836105;29;20815;-79
2023/01/09 03:38:30;;;;;;;71.70;42.03;;;;;;;39.89;39.44;101030.84;4834491;29;21046;-78
2023/01/09 03:40:56;;;;;;;54.10;36.07;;;;;;;39.70;39.91;101041.19;4822991;29;20425;-77
2023/01/09 03:43:22;;;;;;;71.67;38.80;;;;;;;39.35;40.53;101040.19;4827290;29;20443;-74
2023/01/09 03:45:48;;;;;;;67.23;36.57;;;;;;;39.38;40.29;101042.28;4824785;29;20425;-75
2023/01/09 03:48:13;;;;;;;67.73;36.60;;;;;;;39.61;40.18;101043.06;4820622;29;20795;-76
2023/01/09 03:50:44;;;;;;;74.50;36.00;;;;;;;39.74;39.68;101048.38;4823101;29;20445;-74
2023/01/09 03:53:14;;;;;;;76.00;36.97;;;;;;;39.49;40.25;101038.19;4818499;29;20426;-78
2023/01/09 03:55:45;;;;;;;70.30;35.77;;;;;;;39.79;39.90;101030.34;4817455;29;20954;-74
2023/01/09 03:58:12;;;;;;;67.23;34.23;;;;;;;39.84;39.79;101035.63;4823215;29;20429;-74
2023/01/09 04:00:39;;;;;;;57.30;35.53;;;;;;;39.90;39.72;101035.19;4822940;29;20425;-74
2023/01/09 04:03:06;;;;;;;68.23;30.57;;;;;;;39.87;39.90;101029.56;4830783;29;20428;-74
2023/01/09 04:05:32;;;;;;;57.70;32.67;;;;;;;39.78;40.04;101032.28;4828897;29;20442;-78
2023/01/09 04:07:58;;;;;;;80.50;32.43;;;;;;;39.81;40.05;101038.97;4832986;29;20436;-78
2023/01/09 04:10:24;;;;;;;61.80;30.80;;;;;;;40.01;39.53;101038.38;4822778;29;20447;-78
2023/01/09 04:12:50;;;;;;;87.23;30.57;;;;;;;39.83;39.57;101042.16;4822577;29;20429;-72
2023/01/09 04:15:16;;;;;;;54.97;30.77;;;;;;;39.85;39.74;101037.25;4822262;29;20470;-78
2023/01/09 04:17:42;;;;;;;47.73;31.20;;;;;;;39.71;39.85;101035.41;4822621;29;20501;-78
2023/01/09 04:20:09;;;;;;;70.07;29.83;;;;;;;39.51;40.10;101035.97;4822366;29;20453;-78
2023/01/09 04:22:35;;;;;;;64.00;33.65;;;;;;;39.55;40.27;101031.53;4823268;29;20196;-78
2023/01/09 04:25:01;;;;;;;49.87;28.60;;;;;;;39.62;40.09;101034.59;4834978;29;20184;-78
2023/01/09 04:27:27;;;;;;;67.67;36.90;;;;;;;39.42;40.48;101041.38;4832096;29;20941;-77
2023/01/09 04:29:53;;;;;;;57.00;30.27;;;;;;;39.06;41.16;101041.44;4828394;29;20428;-78
2023/01/09 04:32:19;;;;;;;53.80;32.03;;;;;;;39.46;41.00;101036.09;4840957;29;20492;-78
2023/01/09 04:34:45;;;;;;;48.87;30.60;;;;;;;39.48;40.60;101042.84;4839397;29;20201;-74
2023/01/09 04:37:11;;;;;;;63.10;34.87;;;;;;;39.67;40.26;101045.34;4829972;29;20493;-75
2023/01/09 04:39:37;;;;;;;59.70;35.60;;;;;;;40.01;40.09;101044.63;4822525;29;20707;-78
2023/01/09 04:42:03;;;;;;;69.37;38.87;;;;;;;39.65;40.04;101044.81;4832715;29;20439;-78
2023/01/09 04:44:29;;;;;;;57.53;33.90;;;;;;;39.36;40.63;101050.75;4837640;29;20429;-77
2023/01/09 04:46:57;;;;;;;45.43;33.10;;;;;;;39.61;40.46;101049.31;4833763;29;20918;-78
2023/01/09 04:49:23;;;;;;;68.90;34.60;;;;;;;39.80;40.07;101049.03;4822141;29;20811;-78
2023/01/09 04:51:49;;;;;;;79.90;35.60;;;;;;;39.82;39.86;101054.16;4822509;29;20433;-78
2023/01/09 04:54:16;;;;;;;50.83;29.90;;;;;;;39.78;39.89;101054.00;4810039;29;21002;-75
2023/01/09 04:56:42;;;;;;;55.50;30.97;;;;;;;39.80;40.00;101059.13;4813533;29;20634;-78
2023/01/09 04:59:08;;;;;;;51.30;31.83;;;;;;;39.93;39.98;101058.19;4821218;29;20528;-78
2023/01/09 05:01:34;;;;;;;56.80;31.37;;;;;;;39.91;39.72;101058.50;4831691;29;20554;-78
2023/01/09 05:04:01;;;;;;;52.80;31.87;;;;;;;39.79;39.75;101063.75;4822344;29;20452;-78
2023/01/09 05:06:27;;;;;;;58.60;28.23;;;;;;;39.84;39.71;101068.22;4822502;29;20438;-78
2023/01/09 05:08:53;;;;;;;47.00;30.60;;;;;;;39.90;39.51;101067.78;4822028;29;20453;-78
2023/01/09 05:11:19;;;;;;;51.93;29.07;;;;;;;39.72;39.64;101066.91;4823561;29;20428;-78
2023/01/09 05:13:45;;;;;;;48.80;30.27;;;;;;;39.55;39.93;101060.59;4809568;29;20868;-78
2023/01/09 05:16:11;;;;;;;48.03;30.60;;;;;;;39.53;40.60;101071.72;4822141;29;20600;-78
2023/01/09 05:18:36;;;;;;;58.70;33.40;;;;;;;39.71;39.90;101070.72;4821242;29;20919;-74
2023/01/09 05:21:03;;;;;;;58.47;31.47;;;;;;;39.85;39.70;101078.00;4831813;29;20198;-78
2023/01/09 05:23:29;;;;;;;70.53;32.73;;;;;;;39.73;40.12;101073.94;4835469;29;20457;-77
2023/01/09 05:25:55;;;;;;;57.77;32.20;;;;;;;39.89;39.67;101070.78;4821929;29;20536;-78
2023/01/09 05:28:21;;;;;;;41.00;29.43;;;;;;;39.88;39.61;101074.63;4837980;29;20512;-78
2023/01/09 05:30:47;;;;;;;48.43;31.17;;;;;;;39.86;39.55;101072.22;4829558;29;20863;-78
2023/01/09 05:33:13;;;;;;;41.17;31.77;;;;;;;39.88;39.60;101074.63;4833425;29;20428;-78
2023/01/09 05:35:39;;;;;;;61.70;35.63;;;;;;;39.87;39.56;101081.19;4821997;29;20512;-78
2023/01/09 05:38:05;;;;;;;57.70;34.37;;;;;;;39.84;39.58;101079.06;4826403;29;20563;-78
2023/01/09 05:40:31;;;;;;;53.60;31.73;;;;;;;39.62;39.68;101080.75;4828161;29;20192;-74
2023/01/09 05:42:56;;;;;;;51.30;28.93;;;;;;;39.75;39.84;101088.00;4824166;29;20947;-78
2023/01/09 05:45:22;;;;;;;69.00;34.60;;;;;;;39.92;39.99;101087.28;4818172;29;20473;-77
2023/01/09 05:47:48;;;;;;;68.83;35.17;;;;;;;40.00;39.30;101093.84;4820260;29;20181;-73
2023/01/09 05:50:14;;;;;;;60.73;38.53;;;;;;;39.74;39.83;101105.41;4828938;29;20429;-73
2023/01/09 05:52:40;;;;;;;51.20;32.60;;;;;;;39.95;40.03;101099.41;4818026;29;20940;-80
2023/01/09 05:55:07;;;;;;;68.23;36.33;;;;;;;39.99;39.69;101103.13;4810539;29;20946;-83
2023/01/09 05:57:33;;;;;;;76.93;36.97;;;;;;;39.91;39.70;101106.59;4825633;29;21087;-74
2023/01/09 05:59:59;;;;;;;63.57;36.37;;;;;;;39.89;39.77;101108.81;4818677;29;20421;-75
2023/01/09 06:02:25;;;;;;;57.07;34.17;;;;;;;39.64;40.14;101111.09;4821314;29;20482;-82
2023/01/09 06:04:51;;;;;;;92.37;38.47;;;;;;;39.79;40.13;101114.56;4828323;29;20523;-74
2023/01/09 06:07:17;;;;;;;98.63;37.30;;;;;;;39.40;40.50;101125.00;4829101;29;20188;-76
2023/01/09 06:09:42;;;;;;;84.03;38.77;;;;;;;39.54;40.49;101126.84;4830556;29;20227;-73
2023/01/09 06:12:09;;;;;;;88.20;43.90;;;;;;;39.55;40.22;101126.53;4825675;29;20434;-83
2023/01/09 06:14:35;;;;;;;85.83;39.10;;;;;;;39.85;39.94;101124.16;4828898;29;20194;-75
2023/01/09 06:17:01;;;;;;;91.80;42.50;;;;;;;39.55;40.48;101131.97;4832619;29;20512;-80
2023/01/09 06:19:27;;;;;;;89.37;40.23;;;;;;;39.58;39.96;101131.34;4835530;29;20444;-73
2023/01/09 06:21:53;;;;;;;100.43;38.80;;;;;;;39.49;40.19;101141.34;4836597;29;20490;-78
2023/01/09 06:24:19;;;;;;;92.17;38.57;;;;;;;39.52;40.27;101139.91;4832934;29;20865;-75
2023/01/09 06:26:45;;;;;;;111.17;42.10;;;;;;;39.90;39.94;101140.28;4828847;29;20524;-79
2023/01/09 06:29:11;;;;;;;93.00;40.53;;;;;;;39.93;38.99;101147.84;4828150;29;20900;-80
2023/01/09 06:31:37;;;;;;;90.30;37.20;;;;;;;40.17;39.33;101153.72;4821969;29;20196;-71
2023/01/09 06:34:03;;;;;;;76.23;42.77;;;;;;;40.39;38.81;101155.53;4835715;29;20448;-78
2023/01/09 06:36:29;;;;;;;66.43;37.53;;;;;;;40.59;38.53;101156.88;4823780;29;20488;-78
2023/01/09 06:38:55;;;;;;;79.37;42.33;;;;;;;40.73;38.10;101162.16;4830368;29;20480;-79
2023/01/09 06:41:21;;;;;;;95.13;45.20;;;;;;;40.65;38.01;101163.75;4824288;29;20460;-79
2023/01/09 06:43:47;;;;;;;70.40;41.70;;;;;;;40.64;37.95;101172.22;4822983;29;20846;-83
2023/01/09 06:46:13;;;;;;;107.13;41.93;;;;;;;40.49;38.12;101192.53;4828117;29;20232;-78
2023/01/09 06:48:39;;;;;;;77.20;38.30;;;;;;;40.39;38.32;101198.22;4829501;29;20444;-76
2023/01/09 06:51:05;;;;;;;75.03;38.93;;;;;;;40.40;38.40;101205.28;4831089;29;20596;-81
2023/01/09 06:53:31;;;;;;;82.70;39.80;;;;;;;40.44;38.21;101223.34;4833277;29;20865;-81
2023/01/09 06:55:57;;;;;;;90.67;41.10;;;;;;;40.27;38.49;101224.09;4821743;29;20454;-81
2023/01/09 06:58:22;;;;;;;84.13;38.40;;;;;;;40.08;38.47;101220.78;4818751;29;20456;-81
2023/01/09 07:00:48;;;;;;;96.90;41.57;;;;;;;39.91;39.26;101224.22;4833003;29;20425;-81
2023/01/09 07:03:20;;;;;;;80.80;37.53;;;;;;;39.86;39.53;101234.41;4825209;29;20997;-85
2023/01/09 07:05:46;;;;;;;86.07;40.93;;;;;;;40.10;38.86;101234.09;4828206;29;20429;-79
2023/01/09 07:08:13;;;;;;;82.73;42.67;;;;;;;40.14;38.63;101235.03;4826299;29;20512;-74
2023/01/09 07:10:41;;;;;;;87.73;40.07;;;;;;;39.93;38.87;101241.00;4834576;29;20429;-75
2023/01/09 07:13:07;;;;;;;95.13;40.63;;;;;;;39.97;39.02;101241.19;4834714;29;20429;-76
2023/01/09 07:15:33;;;;;;;102.90;38.40;;;;;;;40.07;38.56;101253.72;4828694;29;20455;-81
2023/01/09 07:17:59;;;;;;;94.90;40.60;;;;;;;39.92;38.93;101255.69;4833255;29;20464;-80
2023/01/09 07:20:25;;;;;;;96.50;44.40;;;;;;;39.88;38.42;101257.41;4825567;29;20491;-80
2023/01/09 07:22:51;;;;;;;96.17;41.03;;;;;;;39.79;39.02;101267.44;4828840;29;20429;-80
2023/01/09 07:25:17;;;;;;;84.87;42.63;;;;;;;39.95;38.68;101267.84;4822330;29;20498;-75
2023/01/09 07:27:43;;;;;;;103.27;45.50;;;;;;;40.13;38.48;101266.84;4828729;29;20432;-78
2023/01/09 07:30:10;;;;;;;92.50;43.80;;;;;;;40.16;38.38;101266.25;4825036;29;20421;-77
2023/01/09 07:32:37;;;;;;;77.93;42.20;;;;;;;40.10;37.73;101270.22;4825423;29;20474;-80
2023/01/09 07:35:03;;;;;;;71.43;38.53;;;;;;;40.21;37.76;101274.28;4825362;29;20486;-80
2023/01/09 07:37:29;;;;;;;70.87;41.07;;;;;;;40.39;37.47;101277.03;4830648;29;20488;-79
2023/01/09 07:39:55;;;;;;;90.27;40.97;;;;;;;39.82;38.31;101280.38;4821476;29;20436;-79
2023/01/09 07:42:21;;;;;;;75.73;41.10;;;;;;;40.02;37.95;101289.94;4821520;29;20183;-81
2023/01/09 07:44:47;;;;;;;91.13;40.53;;;;;;;40.22;37.75;101286.75;4831470;29;20188;-78
2023/01/09 07:47:13;;;;;;;88.17;42.40;;;;;;;40.11;38.11;101290.84;4821462;29;20731;-73
2023/01/09 07:49:38;;;;;;;96.03;44.60;;;;;;;39.81;38.22;101283.41;4821386;29;20179;-76
2023/01/09 07:52:04;;;;;;;79.43;40.17;;;;;;;39.52;38.88;101290.03;4822355;29;20424;-78
2023/01/09 07:54:30;;;;;;;92.10;42.40;;;;;;;39.44;39.32;101286.16;4811446;29;20188;-79
2023/01/09 07:56:56;;;;;;;71.87;40.23;;;;;;;39.72;38.52;101286.09;4823367;29;20461;-79
2023/01/09 07:59:22;;;;;;;76.80;40.90;;;;;;;40.07;37.76;101287.13;4822891;29;20822;-79
2023/01/09 08:01:48;;;;;;;95.07;41.20;;;;;;;40.13;37.59;101294.03;4833427;29;20443;-79
2023/01/09 08:04:14;;;;;;;93.33;51.97;;;;;;;40.08;38.01;101288.72;4835972;29;21006;-78
2023/01/09 08:06:40;;;;;;;115.60;60.37;;;;;;;39.92;38.12;101287.50;4833411;29;20456;-79
2023/01/09 08:09:06;;;;;;;84.90;43.43;;;;;;;40.03;38.06;101297.00;4824332;29;20243;-79
2023/01/09 08:11:32;;;;;;;102.37;43.40;;;;;;;39.82;38.27;101295.88;4822662;29;20429;-79
2023/01/09 08:13:58;;;;;;;104.90;45.67;;;;;;;39.70;38.10;101297.25;4822906;29;20789;-78
2023/01/09 08:16:24;;;;;;;94.13;46.10;;;;;;;40.04;37.67;101298.63;4822982;29;20223;-79
2023/01/09 08:18:50;;;;;;;77.87;38.30;;;;;;;39.43;38.37;101300.84;4827824;29;20179;-79
2023/01/09 08:21:16;;;;;;;70.80;43.00;;;;;;;40.01;37.56;101310.88;4840391;29;20516;-79
2023/01/09 08:23:44;;;;;;;107.40;49.30;;;;;;;40.29;37.25;101313.47;4822362;29;20239;-78
2023/01/09 08:26:10;;;;;;;69.53;37.47;;;;;;;40.14;37.05;101314.66;4822941;29;20506;-78
2023/01/09 08:28:36;;;;;;;76.17;36.80;;;;;;;40.36;36.94;101310.31;4822813;29;20445;-79
2023/01/09 08:31:02;;;;;;;83.40;38.23;;;;;;;40.49;36.82;101307.50;4822326;29;20537;-78
2023/01/09 08:33:28;;;;;;;66.13;34.30;;;;;;;40.49;36.14;101312.16;4839683;29;20753;-79
2023/01/09 08:35:54;;;;;;;71.20;37.70;;;;;;;40.40;36.48;101314.00;4829193;29;20448;-79
2023/01/09 08:38:21;;;;;;;101.23;43.33;;;;;;;40.39;36.33;101309.66;4833376;29;20860;-79
2023/01/09 08:40:47;;;;;;;103.27;44.63;;;;;;;40.43;36.51;101311.44;4807580;29;20512;-79
2023/01/09 08:48:43;;;;;;;67.33;38.80;;;;;;;40.47;36.10;101308.91;4832537;29;20506;-79
2023/01/09 08:51:09;;;;;;;84.13;43.60;;;;;;;40.74;36.32;101307.91;4823305;29;20475;-79
2023/01/09 08:53:35;;;;;;;76.30;42.73;;;;;;;40.89;35.71;101295.81;4813815;29;20525;-73
2023/01/09 08:56:03;;;;;;;73.90;37.17;;;;;;;40.89;35.71;101304.78;4819222;29;20532;-79
2023/01/09 08:58:29;;;;;;;74.33;37.73;;;;;;;40.81;35.45;101305.53;4822490;29;20185;-78
2023/01/09 09:00:57;;;;;;;73.17;34.07;;;;;;;40.73;34.87;101300.88;4821899;29;20506;-78
2023/01/09 09:03:24;;;;;;;69.07;34.20;;;;;;;40.79;35.35;101305.06;4822486;29;20440;-78
2023/01/09 09:05:50;;;;;;;68.57;37.73;;;;;;;40.94;35.65;101301.13;4821598;29;20863;-79
2023/01/09 09:08:16;;;;;;;70.73;36.23;;;;;;;40.97;35.14;101305.94;4833101;29;20479;-79
2023/01/09 09:10:42;;;;;;;82.47;38.47;;;;;;;40.92;34.98;101306.09;4823365;29;20449;-76
2023/01/09 09:13:08;;;;;;;113.23;38.87;;;;;;;40.94;35.06;101306.56;4823737;29;20413;-80
2023/01/09 09:15:37;;;;;;;83.87;33.93;;;;;;;40.84;34.40;101315.00;4821953;29;21031;-80
2023/01/09 09:18:05;;;;;;;78.70;37.90;;;;;;;41.01;35.01;101318.59;4822225;29;21025;-85
2023/01/09 09:20:35;;;;;;;62.87;36.90;;;;;;;40.83;34.85;101311.47;4810285;29;20977;-82
2023/01/09 09:23:01;;;;;;;75.70;38.13;;;;;;;40.61;34.95;101320.53;4823080;29;20429;-80
2023/01/09 09:25:27;;;;;;;89.10;37.63;;;;;;;40.73;34.40;101322.66;4814927;29;20491;-78
2023/01/09 09:27:56;;;;;;;96.93;36.00;;;;;;;40.37;35.11;101323.56;4828555;29;20420;-80
2023/01/09 09:30:23;;;;;;;54.30;33.47;;;;;;;40.72;34.32;101321.84;4822150;29;20532;-80
2023/01/09 09:32:49;;;;;;;74.07;37.70;;;;;;;40.79;34.61;101315.94;4823254;29;20602;-79
2023/01/09 09:35:22;;;;;;;76.57;35.60;;;;;;;40.73;35.06;101315.28;4831748;29;20442;-78
2023/01/09 09:37:57;;;;;;;101.20;41.80;;;;;;;40.97;35.01;101311.38;4836427;29;20484;-79
2023/01/09 09:40:56;;;;;;;67.83;36.47;;;;;;;41.33;33.79;101320.13;4829710;29;20449;-81
2023/01/09 09:46:50;;;;;;;66.90;36.80;;;;;;;41.35;33.48;101317.06;4805271;29;20406;-80
2023/01/09 09:49:27;;;;;;;117.97;38.37;;;;;;;40.92;34.33;101312.31;4817243;29;20424;-79
2023/01/09 09:51:58;;;;;;;104.60;41.73;;;;;;;41.15;33.59;101312.22;4821655;29;20433;-81
2023/01/09 09:54:38;;;;;;;80.87;34.27;;;;;;;41.14;33.55;101307.91;4812687;29;20516;-77
2023/01/09 09:57:10;;;;;;;83.27;39.00;;;;;;;40.79;34.15;101308.59;4828912;29;21032;-79
2023/01/09 09:59:40;;;;;;;73.60;38.30;;;;;;;40.86;33.79;101299.94;4821332;29;20449;-78
2023/01/09 10:02:09;;;;;;;70.70;34.90;;;;;;;41.13;33.57;101301.66;4832250;29;20440;-78
2023/01/09 10:04:41;;;;;;;77.37;39.87;;;;;;;41.23;33.39;101292.38;4832458;29;20437;-83
2023/01/09 10:07:21;;;;;;;89.97;36.77;;;;;;;40.96;33.91;101291.53;4828135;29;20429;-82
2023/01/09 10:10:00;;;;;;;71.17;39.03;;;;;;;41.04;33.30;101289.94;4829476;29;20443;-82
2023/01/09 10:12:52;;;;;;;77.50;35.40;;;;;;;41.39;32.51;101290.00;4828427;29;20459;-82
2023/01/09 10:15:28;;;;;;;74.77;36.83;;;;;;;41.69;32.65;101290.97;4824056;29;20464;-78
2023/01/09 10:17:59;;;;;;;84.10;38.60;;;;;;;41.75;32.41;101282.31;4821356;29;20476;-78
2023/01/09 10:20:49;;;;;;;63.83;33.70;;;;;;;41.71;32.16;101281.31;4833450;29;20425;-78
2023/01/09 10:23:29;;;;;;;94.43;37.43;;;;;;;41.62;31.90;101277.84;4833247;29;21045;-78
2023/01/09 10:26:10;;;;;;;71.33;34.43;;;;;;;41.72;31.79;101263.84;4821460;29;20493;-74
2023/01/09 10:28:55;;;;;;;78.50;35.43;;;;;;;41.95;31.96;101266.41;4809891;29;20436;-78
2023/01/09 10:32:03;;;;;;;65.23;32.03;;;;;;;42.00;32.84;101252.63;4821029;29;20421;-77
2023/01/09 10:34:44;;;;;;;63.28;32.42;;;;;;;42.11;32.68;101248.38;4821708;29;20436;-71
2023/01/09 10:37:21;;;;;;;77.40;37.67;;;;;;;41.73;34.20;101246.38;4821116;29;20274;-77
2023/01/09 10:39:56;;;;;;;81.57;34.80;;;;;;;42.01;33.71;101237.88;4820804;29;20437;-72
2023/01/09 10:42:22;;;;;;;71.27;33.03;;;;;;;42.04;33.55;101231.75;4821100;29;20437;-76
2023/01/09 10:45:01;;;;;;;84.50;34.90;;;;;;;41.82;33.98;101230.06;4830895;29;20983;-76
2023/01/09 10:47:38;;;;;;;79.70;36.50;;;;;;;41.99;33.33;101221.84;4818421;29;20443;-75
2023/01/09 10:50:22;;;;;;;64.40;32.03;;;;;;;41.79;33.40;101217.88;4821476;29;20523;-77
2023/01/09 10:52:51;;;;;;;71.67;31.10;;;;;;;42.10;33.28;101214.09;4818424;29;20823;-78
2023/01/09 10:55:43;;;;;;;71.40;31.50;;;;;;;41.76;33.46;101207.63;4815766;29;20433;-77
2023/01/09 10:58:20;;;;;;;76.90;34.80;;;;;;;41.71;33.58;101206.97;4813495;29;21105;-77
2023/01/09 11:00:48;;;;;;;72.10;31.23;;;;;;;41.72;34.27;101212.09;4823820;29;20445;-78
2023/01/09 11:03:17;;;;;;;72.80;34.33;;;;;;;41.69;34.87;101212.75;4824265;29;20494;-78
2023/01/09 11:05:49;;;;;;;50.87;30.50;;;;;;;41.75;34.59;101211.50;4839285;29;20448;-77
2023/01/09 11:08:34;;;;;;;75.33;32.67;;;;;;;41.53;34.82;101208.94;4831818;29;20426;-77
2023/01/09 11:11:02;;;;;;;76.10;35.53;;;;;;;41.90;34.43;101196.53;4813067;29;20414;-77
2023/01/09 11:13:31;;;;;;;74.20;34.40;;;;;;;41.74;34.92;101196.28;4835514;29;20464;-76
2023/01/09 11:16:21;;;;;;;67.50;33.10;;;;;;;41.91;34.85;101184.50;4833424;29;20435;-77
2023/01/09 11:18:59;;;;;;;64.37;29.40;;;;;;;42.03;34.47;101184.63;4828377;29;20460;-76
2023/01/09 11:21:32;;;;;;;68.57;33.33;;;;;;;42.11;34.41;101180.25;4828678;29;20453;-77
2023/01/09 11:24:28;;;;;;;59.07;33.90;;;;;;;42.16;34.76;101171.91;4823692;29;20433;-76
2023/01/09 11:27:24;;;;;;;69.53;33.37;;;;;;;42.30;34.56;101174.44;4809874;29;20430;-76
2023/01/09 11:30:14;;;;;;;52.23;30.33;;;;;;;42.29;34.10;101175.53;4838161;29;20429;-77
2023/01/09 11:32:41;;;;;;;72.00;30.20;;;;;;;42.22;34.09;101170.59;4826568;29;20945;-77